Time;durP1;ratioP1;P1;durP2;ratioP2;P2;SDS_P1;SDS_P2;PMS_P1;PMS_P2;Temp;Humidity;BMP_temperature;BMP_pressure;BME280_temperature;BME280_humidity;BME280_pressure;Samples;Min_cycle;Max_cycle;Signal;HPM_P1;HPM_P2
2023/05/05 00:00:09;;;;;;;0.30;0.30;;;;;;;;;;4974901;28;59303;-70
2023/05/05 00:02:34;;;;;;;0.30;0.22;;;;;;;;;;4973424;28;59617;-70
2023/05/05 00:05:00;;;;;;;0.32;0.32;;;;;;;;;;4976947;28;59904;-70
2023/05/05 00:07:25;;;;;;;0.55;0.45;;;;;;;;;;4974252;28;59448;-68
2023/05/05 00:09:50;;;;;;;1.27;0.98;;;;;;;;;;4975066;28;59205;-69
2023/05/05 00:12:15;;;;;;;0.30;0.30;;;;;;;;;;4975253;28;59603;-69
2023/05/05 00:14:40;;;;;;;0.30;0.30;;;;;;;;;;4973014;28;59300;-70
2023/05/05 00:17:05;;;;;;;0.30;0.30;;;;;;;;;;4973248;28;59438;-68
2023/05/05 00:19:31;;;;;;;0.20;0.20;;;;;;;;;;4976029;28;59488;-67
2023/05/05 00:21:56;;;;;;;0.87;0.50;;;;;;;;;;4971177;28;59297;-70
2023/05/05 00:24:21;;;;;;;0.40;0.40;;;;;;;;;;4975458;28;59166;-68
2023/05/05 00:26:46;;;;;;;0.30;0.30;;;;;;;;;;4975460;28;59718;-71
2023/05/05 00:29:11;;;;;;;0.77;0.30;;;;;;;;;;4975212;28;59760;-70
2023/05/05 00:31:36;;;;;;;0.37;0.20;;;;;;;;;;4973204;28;59542;-70
2023/05/05 00:34:02;;;;;;;0.95;0.40;;;;;;;;;;4975036;28;59290;-68
2023/05/05 00:36:27;;;;;;;0.35;0.35;;;;;;;;;;4978025;28;59259;-68
2023/05/05 00:38:52;;;;;;;0.30;0.30;;;;;;;;;;4973985;28;59575;-71
2023/05/05 00:41:18;;;;;;;0.35;0.35;;;;;;;;;;4972571;28;59261;-69
2023/05/05 00:43:43;;;;;;;0.23;0.23;;;;;;;;;;4976822;28;59320;-70
2023/05/05 00:46:20;;;;;;;0.67;0.60;;;;;;;;;;4974919;28;59352;-69
2023/05/05 00:48:45;;;;;;;0.20;0.20;;;;;;;;;;4977130;28;59365;-71
2023/05/05 00:51:11;;;;;;;0.60;0.32;;;;;;;;;;4972836;28;59251;-70
2023/05/05 00:53:38;;;;;;;0.25;0.25;;;;;;;;;;4971318;28;59340;-71
2023/05/05 00:56:03;;;;;;;0.30;0.25;;;;;;;;;;4973935;28;59769;-71
2023/05/05 00:58:29;;;;;;;0.73;0.40;;;;;;;;;;4975005;28;59127;-71
2023/05/05 01:00:54;;;;;;;0.20;0.20;;;;;;;;;;4975230;28;59252;-70
2023/05/05 01:03:19;;;;;;;0.77;0.53;;;;;;;;;;4973244;28;59202;-65
2023/05/05 01:05:57;;;;;;;0.60;0.40;;;;;;;;;;4973575;28;60014;-70
2023/05/05 01:08:28;;;;;;;0.45;0.45;;;;;;;;;;4973089;28;59320;-70
2023/05/05 01:10:57;;;;;;;0.40;0.40;;;;;;;;;;4974207;28;59193;-70
2023/05/05 01:13:41;;;;;;;0.40;0.40;;;;;;;;;;4973890;28;59607;-69
2023/05/05 01:16:13;;;;;;;0.32;0.32;;;;;;;;;;4972486;28;59786;-67
2023/05/05 01:18:38;;;;;;;0.17;0.17;;;;;;;;;;4974677;28;59691;-70
2023/05/05 01:21:06;;;;;;;0.40;0.40;;;;;;;;;;4970714;28;59497;-69
2023/05/05 01:23:50;;;;;;;0.25;0.20;;;;;;;;;;4973736;28;59373;-68
2023/05/05 01:26:34;;;;;;;0.30;0.30;;;;;;;;;;4974168;28;59775;-70
2023/05/05 01:29:26;;;;;;;0.20;0.20;;;;;;;;;;4972051;28;59805;-70
2023/05/05 01:31:52;;;;;;;0.30;0.30;;;;;;;;;;4972857;28;59290;-70
2023/05/05 01:34:26;;;;;;;0.30;0.30;;;;;;;;;;4974206;28;59207;-71
2023/05/05 01:36:55;;;;;;;0.50;0.30;;;;;;;;;;4973624;28;59320;-67
2023/05/05 01:39:23;;;;;;;0.22;0.20;;;;;;;;;;4973689;28;59853;-68
2023/05/05 01:41:49;;;;;;;0.30;0.30;;;;;;;;;;4974374;28;59709;-70
2023/05/05 01:44:15;;;;;;;0.60;0.60;;;;;;;;;;4975083;28;59241;-69
2023/05/05 01:46:40;;;;;;;1.02;0.30;;;;;;;;;;4974557;28;59650;-70
2023/05/05 01:49:07;;;;;;;0.40;0.30;;;;;;;;;;4979419;28;59571;-69
2023/05/05 01:51:33;;;;;;;0.20;0.20;;;;;;;;;;4980841;28;59214;-69
2023/05/05 01:54:02;;;;;;;0.40;0.40;;;;;;;;;;4981492;28;59557;-70
2023/05/05 01:56:28;;;;;;;0.90;0.30;;;;;;;;;;4972785;28;58496;-69
2023/05/05 01:58:54;;;;;;;0.32;0.32;;;;;;;;;;4971463;28;59892;-70
2023/05/05 02:01:21;;;;;;;0.57;0.35;;;;;;;;;;4972888;28;59752;-69
2023/05/05 02:03:47;;;;;;;0.30;0.30;;;;;;;;;;4973391;28;59609;-70
2023/05/05 02:06:13;;;;;;;0.20;0.20;;;;;;;;;;4971267;28;59497;-71
2023/05/05 02:08:40;;;;;;;0.57;0.57;;;;;;;;;;4972935;28;59267;-69
2023/05/05 02:11:07;;;;;;;0.43;0.30;;;;;;;;;;4972798;28;59421;-70
2023/05/05 02:13:34;;;;;;;0.22;0.22;;;;;;;;;;4972755;28;59317;-71
2023/05/05 02:16:00;;;;;;;0.20;0.20;;;;;;;;;;4974702;28;59230;-69
2023/05/05 02:18:27;;;;;;;0.30;0.30;;;;;;;;;;4974014;28;60048;-68
2023/05/05 02:20:52;;;;;;;0.68;0.65;;;;;;;;;;4971273;28;59523;-70
2023/05/05 02:23:17;;;;;;;0.47;0.30;;;;;;;;;;4975124;28;59417;-70
2023/05/05 02:25:44;;;;;;;0.28;0.28;;;;;;;;;;4973890;28;59280;-70
2023/05/05 02:28:14;;;;;;;0.77;0.30;;;;;;;;;;4970294;28;59815;-69
2023/05/05 02:30:40;;;;;;;0.20;0.20;;;;;;;;;;4973403;28;59484;-66
2023/05/05 02:33:07;;;;;;;0.30;0.30;;;;;;;;;;4972583;28;59850;-67
2023/05/05 02:35:35;;;;;;;0.40;0.40;;;;;;;;;;4975968;28;59368;-69
2023/05/05 02:38:03;;;;;;;0.55;0.20;;;;;;;;;;4971437;28;59368;-70
2023/05/05 02:40:28;;;;;;;;;;;;;;;;;;4973555;28;59542;-69
2023/05/05 02:42:54;;;;;;;0.30;0.30;;;;;;;;;;4972370;28;59057;-70
2023/05/05 02:45:21;;;;;;;0.50;0.30;;;;;;;;;;4975120;28;59505;-71
2023/05/05 02:47:46;;;;;;;0.40;0.35;;;;;;;;;;4971469;28;59550;-70
2023/05/05 02:50:11;;;;;;;0.53;0.30;;;;;;;;;;4973595;28;59875;-70
2023/05/05 02:52:37;;;;;;;0.93;0.70;;;;;;;;;;4978021;28;60089;-71
2023/05/05 02:55:03;;;;;;;0.10;0.10;;;;;;;;;;4975808;28;59272;-67
2023/05/05 02:57:36;;;;;;;0.35;0.28;;;;;;;;;;4979414;28;58971;-69
2023/05/05 03:00:05;;;;;;;0.85;0.85;;;;;;;;;;4979026;28;62748;-68
2023/05/05 03:02:45;;;;;;;0.82;0.22;;;;;;;;;;4980593;28;59611;-68
2023/05/05 03:05:14;;;;;;;0.40;0.40;;;;;;;;;;4980999;28;59608;-70
2023/05/05 03:07:40;;;;;;;0.82;0.25;;;;;;;;;;4978134;28;59648;-71
2023/05/05 03:10:07;;;;;;;0.20;0.20;;;;;;;;;;4979484;28;59644;-68
2023/05/05 03:12:53;;;;;;;0.38;0.30;;;;;;;;;;4980417;28;59562;-69
2023/05/05 03:15:20;;;;;;;0.20;0.20;;;;;;;;;;4977195;28;59811;-70
2023/05/05 03:17:46;;;;;;;0.20;0.20;;;;;;;;;;4980906;28;59165;-70
2023/05/05 03:20:12;;;;;;;0.47;0.47;;;;;;;;;;4979710;28;59103;-70
2023/05/05 03:22:37;;;;;;;0.30;0.30;;;;;;;;;;4978777;28;58830;-70
2023/05/05 03:25:02;;;;;;;0.30;0.30;;;;;;;;;;4975403;28;59684;-68
2023/05/05 03:27:28;;;;;;;0.40;0.40;;;;;;;;;;4977784;28;59229;-71
2023/05/05 03:29:53;;;;;;;1.70;0.23;;;;;;;;;;4978311;28;59702;-71
2023/05/05 03:32:18;;;;;;;0.30;0.30;;;;;;;;;;4979560;28;59633;-70
2023/05/05 03:34:43;;;;;;;0.38;0.38;;;;;;;;;;4976812;28;60385;-71
2023/05/05 03:37:08;;;;;;;0.63;0.43;;;;;;;;;;4976624;28;59217;-71
2023/05/05 03:39:33;;;;;;;0.52;0.50;;;;;;;;;;4980253;28;59493;-71
2023/05/05 03:41:59;;;;;;;0.35;0.35;;;;;;;;;;4980697;28;59628;-71
2023/05/05 03:44:24;;;;;;;0.30;0.30;;;;;;;;;;4979348;28;59482;-71
2023/05/05 03:46:49;;;;;;;0.40;0.32;;;;;;;;;;4975830;28;59564;-72
2023/05/05 03:49:14;;;;;;;0.33;0.33;;;;;;;;;;4980174;28;59258;-71
2023/05/05 03:51:39;;;;;;;0.43;0.30;;;;;;;;;;4978137;28;59666;-68
2023/05/05 03:54:05;;;;;;;0.60;0.60;;;;;;;;;;4977821;28;59403;-69
2023/05/05 03:56:30;;;;;;;0.90;0.27;;;;;;;;;;4979253;28;59265;-71
2023/05/05 03:58:55;;;;;;;1.60;0.43;;;;;;;;;;4979270;28;59676;-71
2023/05/05 04:01:20;;;;;;;0.60;0.60;;;;;;;;;;4978141;28;59707;-71
2023/05/05 04:03:45;;;;;;;0.30;0.30;;;;;;;;;;4977415;28;59166;-71
2023/05/05 04:06:10;;;;;;;0.55;0.55;;;;;;;;;;4979150;28;59598;-71
2023/05/05 04:08:36;;;;;;;0.40;0.40;;;;;;;;;;4979532;28;59509;-71
2023/05/05 04:11:01;;;;;;;0.60;0.40;;;;;;;;;;4977314;28;59333;-71
2023/05/05 04:13:26;;;;;;;0.20;0.20;;;;;;;;;;4976007;28;59457;-71
2023/05/05 04:15:51;;;;;;;2.40;0.40;;;;;;;;;;4979043;28;59280;-70
2023/05/05 04:18:17;;;;;;;0.60;0.37;;;;;;;;;;4980523;28;59649;-68
2023/05/05 04:20:42;;;;;;;0.25;0.25;;;;;;;;;;4978144;28;59412;-68
2023/05/05 04:23:07;;;;;;;0.30;0.30;;;;;;;;;;4979448;28;59462;-71
2023/05/05 04:25:32;;;;;;;0.30;0.30;;;;;;;;;;4979816;28;59226;-70
2023/05/05 04:27:57;;;;;;;0.47;0.40;;;;;;;;;;4981076;28;59563;-71
2023/05/05 04:30:22;;;;;;;1.80;0.33;;;;;;;;;;4980930;28;59912;-71
2023/05/05 04:32:48;;;;;;;2.53;0.68;;;;;;;;;;4980478;28;59598;-67
2023/05/05 04:35:13;;;;;;;0.47;0.47;;;;;;;;;;4984030;28;59806;-69
2023/05/05 04:37:38;;;;;;;1.00;0.63;;;;;;;;;;4982270;28;59234;-67
2023/05/05 04:40:03;;;;;;;1.03;0.70;;;;;;;;;;4977864;28;59499;-70
2023/05/05 04:42:29;;;;;;;0.45;0.45;;;;;;;;;;4980516;28;58905;-70
2023/05/05 04:44:54;;;;;;;0.80;0.77;;;;;;;;;;4974519;28;59496;-71
2023/05/05 04:47:19;;;;;;;2.57;0.60;;;;;;;;;;4974354;28;59468;-70
2023/05/05 04:49:44;;;;;;;0.40;0.40;;;;;;;;;;4976642;28;59615;-69
2023/05/05 04:52:11;;;;;;;4.13;0.97;;;;;;;;;;4974494;28;59611;-71
2023/05/05 04:54:36;;;;;;;1.08;0.60;;;;;;;;;;4980407;28;59623;-70
2023/05/05 04:57:02;;;;;;;1.47;0.97;;;;;;;;;;4979804;28;59934;-71
2023/05/05 04:59:27;;;;;;;7.40;1.70;;;;;;;;;;4973700;28;59291;-74
2023/05/05 05:01:53;;;;;;;4.72;1.50;;;;;;;;;;4973021;28;59417;-70
2023/05/05 05:04:18;;;;;;;1.10;0.98;;;;;;;;;;4981162;28;59855;-72
2023/05/05 05:06:44;;;;;;;2.43;1.03;;;;;;;;;;4977258;28;59252;-73
2023/05/05 05:09:09;;;;;;;2.63;0.90;;;;;;;;;;4982187;28;59928;-74
2023/05/05 05:11:35;;;;;;;3.42;1.00;;;;;;;;;;4978534;28;59552;-73
2023/05/05 05:14:00;;;;;;;2.20;1.30;;;;;;;;;;4980769;28;59377;-73
2023/05/05 05:16:25;;;;;;;4.22;1.08;;;;;;;;;;4984538;28;59707;-73
2023/05/05 05:18:50;;;;;;;2.75;0.98;;;;;;;;;;4979815;28;59672;-73
2023/05/05 05:21:15;;;;;;;2.60;0.80;;;;;;;;;;4980343;28;59519;-74
2023/05/05 05:23:41;;;;;;;3.13;1.10;;;;;;;;;;4982788;28;59201;-73
2023/05/05 05:26:06;;;;;;;6.27;1.00;;;;;;;;;;4979450;28;59435;-72
2023/05/05 05:28:31;;;;;;;2.10;0.90;;;;;;;;;;4981940;28;59283;-73
2023/05/05 05:30:56;;;;;;;1.27;0.75;;;;;;;;;;4979516;28;59664;-74
2023/05/05 05:33:21;;;;;;;1.50;1.13;;;;;;;;;;4980899;28;59583;-73
2023/05/05 05:35:46;;;;;;;2.55;0.80;;;;;;;;;;4983749;28;59344;-74
2023/05/05 05:38:11;;;;;;;3.67;1.43;;;;;;;;;;4982114;28;59243;-73
2023/05/05 05:40:37;;;;;;;3.30;0.97;;;;;;;;;;4980331;28;59109;-73
2023/05/05 05:43:02;;;;;;;0.95;0.85;;;;;;;;;;4980303;28;59583;-72
2023/05/05 05:45:28;;;;;;;1.33;0.82;;;;;;;;;;4980254;28;59071;-74
2023/05/05 05:47:53;;;;;;;1.53;0.60;;;;;;;;;;4982540;28;59279;-73
2023/05/05 05:50:18;;;;;;;1.40;0.60;;;;;;;;;;4978596;28;59161;-72
2023/05/05 05:52:43;;;;;;;3.57;0.70;;;;;;;;;;4980134;28;59527;-72
2023/05/05 05:55:08;;;;;;;0.60;0.50;;;;;;;;;;4980878;28;59733;-72
2023/05/05 05:57:33;;;;;;;0.90;0.87;;;;;;;;;;4980450;28;59198;-73
2023/05/05 05:59:58;;;;;;;1.25;0.80;;;;;;;;;;4978162;28;59184;-73
2023/05/05 06:02:25;;;;;;;3.35;0.93;;;;;;;;;;4982405;28;59628;-73
2023/05/05 06:04:51;;;;;;;1.95;0.90;;;;;;;;;;4980377;28;59235;-73
2023/05/05 06:07:16;;;;;;;0.90;0.57;;;;;;;;;;4979888;28;59345;-72
2023/05/05 06:09:41;;;;;;;0.93;0.67;;;;;;;;;;4980604;28;59448;-71
2023/05/05 06:12:06;;;;;;;0.93;0.82;;;;;;;;;;4978205;28;59700;-72
2023/05/05 06:14:31;;;;;;;5.80;1.13;;;;;;;;;;4980341;28;59358;-73
2023/05/05 06:16:57;;;;;;;1.47;0.60;;;;;;;;;;4978429;28;59327;-73
2023/05/05 06:19:22;;;;;;;1.05;0.85;;;;;;;;;;4978342;28;58393;-73
2023/05/05 06:21:47;;;;;;;0.60;0.50;;;;;;;;;;4981506;28;59282;-73
2023/05/05 06:24:12;;;;;;;0.40;0.33;;;;;;;;;;4977760;28;59228;-73
2023/05/05 06:26:37;;;;;;;1.02;0.63;;;;;;;;;;4980450;28;59341;-73
2023/05/05 06:29:02;;;;;;;1.53;0.63;;;;;;;;;;4978632;28;59303;-73
2023/05/05 06:31:27;;;;;;;0.88;0.60;;;;;;;;;;4982473;28;58904;-73
2023/05/05 06:33:53;;;;;;;0.60;0.60;;;;;;;;;;4978772;28;59991;-73
2023/05/05 06:36:18;;;;;;;0.63;0.50;;;;;;;;;;4979118;28;59568;-73
2023/05/05 06:38:43;;;;;;;1.00;0.80;;;;;;;;;;4977339;28;59150;-73
2023/05/05 06:41:08;;;;;;;0.57;0.38;;;;;;;;;;4980688;28;59544;-72
2023/05/05 06:43:33;;;;;;;0.80;0.60;;;;;;;;;;4980729;28;59215;-73
2023/05/05 06:45:58;;;;;;;2.45;0.40;;;;;;;;;;4980281;28;59533;-72
2023/05/05 06:48:23;;;;;;;0.50;0.50;;;;;;;;;;4982610;28;59343;-73
2023/05/05 06:50:49;;;;;;;0.50;0.50;;;;;;;;;;4979844;28;59596;-73
2023/05/05 06:53:14;;;;;;;1.27;0.60;;;;;;;;;;4976031;28;59342;-73
2023/05/05 06:55:41;;;;;;;1.23;0.60;;;;;;;;;;4976190;28;59568;-73
2023/05/05 06:58:07;;;;;;;1.08;0.90;;;;;;;;;;4980758;28;59472;-73
2023/05/05 07:00:32;;;;;;;1.95;0.45;;;;;;;;;;4978398;28;59676;-72
2023/05/05 07:02:57;;;;;;;0.73;0.55;;;;;;;;;;4973621;28;59721;-72
2023/05/05 07:05:22;;;;;;;1.35;0.45;;;;;;;;;;4981195;28;59423;-73
2023/05/05 07:07:54;;;;;;;0.70;0.47;;;;;;;;;;4976709;28;60240;-73
2023/05/05 07:10:20;;;;;;;0.50;0.50;;;;;;;;;;4977951;28;59319;-74
2023/05/05 07:12:45;;;;;;;3.50;0.60;;;;;;;;;;4979808;28;58899;-73
2023/05/05 07:15:11;;;;;;;0.63;0.52;;;;;;;;;;4980684;28;59037;-73
2023/05/05 07:17:36;;;;;;;0.77;0.68;;;;;;;;;;4980280;28;60202;-73
2023/05/05 07:20:01;;;;;;;0.53;0.53;;;;;;;;;;4982011;28;59109;-74
2023/05/05 07:22:27;;;;;;;0.57;0.55;;;;;;;;;;4980446;28;59340;-73
2023/05/05 07:24:52;;;;;;;0.43;0.43;;;;;;;;;;4978400;28;59033;-74
2023/05/05 07:27:17;;;;;;;0.90;0.60;;;;;;;;;;4980679;28;59874;-73
2023/05/05 07:29:42;;;;;;;0.40;0.40;;;;;;;;;;4979693;28;59272;-70
2023/05/05 07:32:07;;;;;;;1.50;0.50;;;;;;;;;;4977763;28;59218;-73
2023/05/05 07:34:33;;;;;;;0.50;0.50;;;;;;;;;;4980313;28;59203;-73
2023/05/05 07:36:58;;;;;;;0.30;0.30;;;;;;;;;;4973154;28;59626;-72
2023/05/05 07:39:23;;;;;;;0.50;0.50;;;;;;;;;;4980743;28;59717;-73
2023/05/05 07:41:48;;;;;;;0.70;0.50;;;;;;;;;;4978100;28;59723;-73
2023/05/05 07:44:14;;;;;;;0.37;0.37;;;;;;;;;;4979118;28;59587;-72
2023/05/05 07:46:39;;;;;;;0.60;0.60;;;;;;;;;;4978718;28;59319;-72
2023/05/05 07:49:05;;;;;;;0.50;0.50;;;;;;;;;;4977926;28;59531;-73
2023/05/05 07:51:30;;;;;;;0.43;0.43;;;;;;;;;;4977347;28;59236;-71
2023/05/05 07:53:56;;;;;;;0.52;0.52;;;;;;;;;;4975959;28;59643;-72
2023/05/05 07:56:21;;;;;;;0.87;0.43;;;;;;;;;;4980925;28;59352;-73
2023/05/05 07:58:46;;;;;;;0.60;0.60;;;;;;;;;;4975505;28;59761;-72
2023/05/05 08:01:12;;;;;;;0.60;0.60;;;;;;;;;;4976054;28;59153;-73
2023/05/05 08:03:37;;;;;;;0.70;0.60;;;;;;;;;;4979891;28;59258;-73
2023/05/05 08:06:07;;;;;;;0.40;0.40;;;;;;;;;;4982206;28;59669;-69
2023/05/05 08:08:32;;;;;;;0.30;0.30;;;;;;;;;;4979973;28;59330;-70
2023/05/05 08:10:57;;;;;;;1.05;0.40;;;;;;;;;;4981152;28;59269;-72
2023/05/05 08:13:22;;;;;;;0.50;0.30;;;;;;;;;;4984008;28;59719;-73
2023/05/05 08:15:47;;;;;;;0.90;0.50;;;;;;;;;;4980374;28;59510;-73
2023/05/05 08:18:13;;;;;;;0.50;0.50;;;;;;;;;;4982155;28;59099;-69
2023/05/05 08:20:38;;;;;;;0.67;0.60;;;;;;;;;;4980935;28;59998;-71
2023/05/05 08:23:03;;;;;;;0.60;0.50;;;;;;;;;;4984496;28;59534;-73
2023/05/05 08:25:28;;;;;;;0.55;0.55;;;;;;;;;;4984339;28;59264;-73
2023/05/05 08:27:54;;;;;;;0.60;0.60;;;;;;;;;;4982435;28;59082;-73
2023/05/05 08:30:22;;;;;;;0.47;0.47;;;;;;;;;;4995281;28;60239;-73
2023/05/05 08:32:48;;;;;;;0.50;0.50;;;;;;;;;;4980928;28;59738;-73
2023/05/05 08:35:13;;;;;;;0.60;0.60;;;;;;;;;;4981820;28;59285;-73
2023/05/05 08:37:38;;;;;;;0.60;0.60;;;;;;;;;;4981640;28;59203;-72
2023/05/05 08:40:04;;;;;;;0.63;0.60;;;;;;;;;;4979125;28;59152;-73
2023/05/05 08:42:29;;;;;;;0.40;0.40;;;;;;;;;;4981194;28;59625;-74
2023/05/05 08:44:55;;;;;;;0.70;0.55;;;;;;;;;;4982121;28;59027;-72
2023/05/05 08:47:20;;;;;;;0.23;0.23;;;;;;;;;;4981949;28;59672;-69
2023/05/05 08:49:46;;;;;;;0.40;0.40;;;;;;;;;;4982639;28;59721;-73
2023/05/05 08:52:17;;;;;;;0.40;0.40;;;;;;;;;;4980754;28;59997;-73
2023/05/05 08:54:50;;;;;;;0.82;0.80;;;;;;;;;;4979584;28;59628;-69
2023/05/05 08:57:18;;;;;;;1.08;0.93;;;;;;;;;;4981526;28;58553;-73
2023/05/05 08:59:43;;;;;;;0.68;0.52;;;;;;;;;;4980027;28;60313;-73
2023/05/05 09:02:09;;;;;;;0.57;0.53;;;;;;;;;;4981651;28;58696;-74
2023/05/05 09:04:35;;;;;;;0.63;0.63;;;;;;;;;;4979426;28;59213;-73
2023/05/05 09:07:00;;;;;;;0.63;0.63;;;;;;;;;;4981693;28;59590;-72
2023/05/05 09:09:25;;;;;;;0.40;0.40;;;;;;;;;;4982525;28;59497;-73
2023/05/05 09:11:51;;;;;;;0.50;0.50;;;;;;;;;;4973599;28;59051;-74
2023/05/05 09:14:16;;;;;;;0.82;0.73;;;;;;;;;;4982726;28;59160;-73
2023/05/05 09:16:42;;;;;;;0.57;0.57;;;;;;;;;;4984458;28;59218;-70
2023/05/05 09:19:07;;;;;;;0.75;0.60;;;;;;;;;;4982988;28;59076;-71
2023/05/05 09:21:32;;;;;;;0.30;0.30;;;;;;;;;;4981814;28;60612;-73
2023/05/05 09:24:07;;;;;;;0.53;0.53;;;;;;;;;;4976640;28;59140;-73
2023/05/05 09:26:33;;;;;;;0.40;0.40;;;;;;;;;;4980467;28;59571;-73
2023/05/05 09:29:00;;;;;;;0.47;0.47;;;;;;;;;;4974606;28;59283;-74
2023/05/05 09:31:26;;;;;;;0.68;0.68;;;;;;;;;;4984266;28;59584;-74
2023/05/05 09:33:51;;;;;;;0.50;0.50;;;;;;;;;;4978470;28;59395;-71
2023/05/05 09:36:16;;;;;;;0.50;0.50;;;;;;;;;;4979933;28;59290;-73
2023/05/05 09:39:01;;;;;;;0.77;0.70;;;;;;;;;;4979544;28;60426;-73
2023/05/05 09:41:40;;;;;;;0.63;0.63;;;;;;;;;;4977349;28;58876;-73
2023/05/05 09:44:06;;;;;;;0.50;0.50;;;;;;;;;;4982647;28;59207;-73
2023/05/05 09:46:31;;;;;;;0.30;0.30;;;;;;;;;;4981470;28;59655;-74
2023/05/05 09:49:12;;;;;;;0.47;0.47;;;;;;;;;;4983740;28;59050;-73
2023/05/05 09:51:37;;;;;;;0.75;0.70;;;;;;;;;;4974543;28;60022;-73
2023/05/05 09:54:02;;;;;;;0.57;0.40;;;;;;;;;;4980628;28;59365;-72
2023/05/05 09:56:38;;;;;;;0.33;0.33;;;;;;;;;;4980288;28;59579;-73
2023/05/05 09:59:07;;;;;;;0.70;0.50;;;;;;;;;;4978904;28;59641;-73
2023/05/05 10:01:32;;;;;;;0.60;0.60;;;;;;;;;;4980104;28;60431;-74
2023/05/05 10:03:57;;;;;;;0.67;0.57;;;;;;;;;;4980303;28;59283;-73
2023/05/05 10:06:38;;;;;;;0.50;0.50;;;;;;;;;;4976035;28;59932;-73
2023/05/05 10:09:03;;;;;;;1.35;0.80;;;;;;;;;;4980975;28;59201;-72
2023/05/05 10:11:28;;;;;;;0.70;0.70;;;;;;;;;;4980617;28;59183;-71
2023/05/05 10:13:53;;;;;;;0.50;0.47;;;;;;;;;;4977869;28;59544;-73
2023/05/05 10:16:19;;;;;;;0.50;0.50;;;;;;;;;;4979755;28;59200;-73
2023/05/05 10:18:45;;;;;;;0.70;0.70;;;;;;;;;;4979484;28;58868;-73
2023/05/05 10:21:12;;;;;;;0.50;0.50;;;;;;;;;;4978457;28;59311;-74
2023/05/05 10:23:41;;;;;;;0.50;0.50;;;;;;;;;;4980744;28;59399;-73
2023/05/05 10:26:09;;;;;;;0.50;0.50;;;;;;;;;;4980891;28;59560;-72
2023/05/05 10:28:40;;;;;;;0.30;0.30;;;;;;;;;;4973995;28;59369;-70
2023/05/05 10:31:08;;;;;;;0.50;0.50;;;;;;;;;;4980315;28;59448;-73
2023/05/05 10:33:38;;;;;;;0.70;0.70;;;;;;;;;;4978561;28;59682;-73
2023/05/05 10:36:05;;;;;;;0.65;0.60;;;;;;;;;;4976119;28;59208;-73
2023/05/05 10:38:30;;;;;;;0.50;0.50;;;;;;;;;;4980200;28;59315;-71
2023/05/05 10:40:56;;;;;;;0.95;0.60;;;;;;;;;;4976122;28;59178;-73
2023/05/05 10:43:22;;;;;;;0.45;0.45;;;;;;;;;;4981569;28;59539;-73
2023/05/05 10:45:47;;;;;;;1.05;0.40;;;;;;;;;;4996173;28;59966;-73
2023/05/05 10:48:26;;;;;;;0.67;0.57;;;;;;;;;;4981116;28;58667;-69
2023/05/05 10:50:55;;;;;;;0.60;0.60;;;;;;;;;;4980386;28;59228;-73
2023/05/05 10:53:27;;;;;;;0.50;0.50;;;;;;;;;;4977453;28;59305;-72
2023/05/05 10:56:10;;;;;;;0.50;0.50;;;;;;;;;;4978874;28;59140;-73
2023/05/05 10:58:37;;;;;;;0.52;0.52;;;;;;;;;;4975613;28;59513;-74
2023/05/05 11:01:02;;;;;;;0.70;0.70;;;;;;;;;;4977313;28;59289;-74
2023/05/05 11:03:28;;;;;;;0.60;0.60;;;;;;;;;;4979595;28;59479;-72
2023/05/05 11:06:02;;;;;;;0.60;0.60;;;;;;;;;;4980106;28;59007;-74
2023/05/05 11:08:27;;;;;;;0.73;0.73;;;;;;;;;;4977847;28;59161;-73
2023/05/05 11:10:52;;;;;;;0.60;0.60;;;;;;;;;;4979726;28;59067;-72
2023/05/05 11:13:18;;;;;;;0.80;0.70;;;;;;;;;;4978861;28;59427;-73
2023/05/05 11:15:43;;;;;;;0.70;0.70;;;;;;;;;;4979284;28;59097;-71
2023/05/05 11:18:26;;;;;;;0.50;0.50;;;;;;;;;;4980262;28;59673;-73
2023/05/05 11:20:57;;;;;;;0.50;0.50;;;;;;;;;;4978525;28;59290;-73
2023/05/05 11:23:23;;;;;;;0.63;0.63;;;;;;;;;;4978672;28;59514;-71
2023/05/05 11:25:50;;;;;;;0.75;0.75;;;;;;;;;;4977632;28;59522;-73
2023/05/05 11:28:24;;;;;;;0.80;0.65;;;;;;;;;;4980122;28;59331;-73
2023/05/05 11:31:09;;;;;;;0.60;0.60;;;;;;;;;;4975151;28;60429;-73
2023/05/05 11:33:36;;;;;;;0.93;0.70;;;;;;;;;;4977197;28;59563;-72
2023/05/05 11:36:11;;;;;;;0.68;0.60;;;;;;;;;;4980077;28;59106;-73
2023/05/05 11:38:46;;;;;;;0.52;0.52;;;;;;;;;;4983397;28;59891;-73
2023/05/05 11:41:12;;;;;;;0.63;0.63;;;;;;;;;;4986165;28;59207;-73
2023/05/05 11:43:37;;;;;;;1.40;1.00;;;;;;;;;;4987016;28;58930;-74
2023/05/05 11:46:12;;;;;;;1.52;1.42;;;;;;;;;;4986142;28;59829;-73
2023/05/05 11:48:47;;;;;;;0.40;0.40;;;;;;;;;;4985136;28;59482;-69
2023/05/05 11:51:13;;;;;;;0.90;0.90;;;;;;;;;;4982878;28;59430;-72
2023/05/05 11:53:42;;;;;;;0.80;0.80;;;;;;;;;;4977286;28;59863;-74
2023/05/05 11:56:08;;;;;;;0.50;0.50;;;;;;;;;;4977153;28;59330;-73
2023/05/05 11:58:33;;;;;;;0.75;0.65;;;;;;;;;;4981425;28;59585;-73
2023/05/05 12:00:58;;;;;;;1.02;0.70;;;;;;;;;;4979407;28;59426;-72
2023/05/05 12:03:23;;;;;;;0.80;0.80;;;;;;;;;;4981414;28;59697;-73
2023/05/05 12:05:52;;;;;;;0.63;0.63;;;;;;;;;;4983149;28;60453;-70
2023/05/05 12:08:18;;;;;;;0.88;0.88;;;;;;;;;;4976642;28;59288;-73
2023/05/05 12:10:43;;;;;;;1.23;1.00;;;;;;;;;;4974958;28;59761;-72
2023/05/05 12:13:18;;;;;;;0.70;0.70;;;;;;;;;;4975867;28;59762;-70
2023/05/05 12:15:43;;;;;;;0.70;0.70;;;;;;;;;;4981735;28;59597;-69
2023/05/05 12:18:20;;;;;;;0.70;0.70;;;;;;;;;;4985863;28;59404;-70
2023/05/05 12:20:46;;;;;;;0.80;0.80;;;;;;;;;;4976237;28;59501;-70
2023/05/05 12:23:11;;;;;;;0.53;0.53;;;;;;;;;;4974293;28;59445;-69
2023/05/05 12:25:37;;;;;;;0.63;0.63;;;;;;;;;;4978080;28;59232;-70
2023/05/05 12:28:03;;;;;;;0.50;0.50;;;;;;;;;;4980366;28;59619;-70
2023/05/05 12:30:28;;;;;;;0.70;0.70;;;;;;;;;;4976374;28;59398;-70
2023/05/05 12:33:01;;;;;;;0.80;0.70;;;;;;;;;;4973936;28;59175;-69
2023/05/05 12:35:27;;;;;;;0.60;0.60;;;;;;;;;;4982068;28;59702;-69
2023/05/05 12:37:52;;;;;;;0.70;0.70;;;;;;;;;;4981507;28;59236;-68
2023/05/05 12:40:36;;;;;;;0.73;0.70;;;;;;;;;;4975088;28;59651;-69
2023/05/05 12:43:01;;;;;;;0.80;0.80;;;;;;;;;;4978658;28;59559;-69
2023/05/05 12:45:26;;;;;;;0.68;0.68;;;;;;;;;;4979197;28;59907;-70
2023/05/05 12:47:51;;;;;;;0.80;0.80;;;;;;;;;;4975144;28;59272;-70
2023/05/05 12:50:28;;;;;;;0.63;0.63;;;;;;;;;;4968324;28;59745;-69
2023/05/05 12:52:53;;;;;;;0.73;0.73;;;;;;;;;;4971918;28;59703;-70
2023/05/05 12:55:18;;;;;;;1.00;1.00;;;;;;;;;;4969631;28;59667;-69
2023/05/05 12:58:03;;;;;;;0.75;0.75;;;;;;;;;;4969615;28;59235;-69
2023/05/05 13:00:28;;;;;;;0.88;0.88;;;;;;;;;;4979412;28;59074;-72
2023/05/05 13:02:54;;;;;;;0.90;0.90;;;;;;;;;;4971477;28;59363;-68
2023/05/05 13:05:32;;;;;;;2.22;0.75;;;;;;;;;;4975464;28;59538;-67
2023/05/05 13:07:58;;;;;;;0.70;0.70;;;;;;;;;;4970706;28;59523;-70
2023/05/05 13:10:23;;;;;;;1.47;1.00;;;;;;;;;;4969965;28;59582;-70
2023/05/05 13:12:49;;;;;;;1.60;1.45;;;;;;;;;;4974288;28;59927;-70
2023/05/05 13:15:14;;;;;;;7.05;1.55;;;;;;;;;;4978079;28;60202;-69
2023/05/05 13:17:40;;;;;;;7.65;1.77;;;;;;;;;;4979279;28;59704;-72
2023/05/05 13:20:06;;;;;;;3.78;1.40;;;;;;;;;;4976580;28;59771;-68
2023/05/05 13:22:31;;;;;;;9.73;2.30;;;;;;;;;;4975760;28;58911;-68
2023/05/05 13:24:56;;;;;;;2.88;1.73;;;;;;;;;;4969732;28;59765;-65
2023/05/05 13:27:22;;;;;;;13.02;2.38;;;;;;;;;;4975130;28;59678;-68
2023/05/05 13:29:47;;;;;;;4.60;1.95;;;;;;;;;;4972919;28;59341;-71
2023/05/05 13:32:12;;;;;;;4.57;1.77;;;;;;;;;;4980918;28;59331;-70
2023/05/05 13:34:37;;;;;;;5.90;2.05;;;;;;;;;;4972977;28;59810;-67
2023/05/05 13:37:03;;;;;;;10.53;2.13;;;;;;;;;;4975089;28;59048;-68
2023/05/05 13:39:28;;;;;;;13.63;3.37;;;;;;;;;;4980263;28;59051;-67
2023/05/05 13:41:53;;;;;;;10.93;2.70;;;;;;;;;;4973442;28;59039;-69
2023/05/05 13:44:18;;;;;;;14.70;3.17;;;;;;;;;;4973354;28;59201;-70
2023/05/05 13:46:43;;;;;;;11.10;1.97;;;;;;;;;;4965364;28;60134;-65
2023/05/05 13:49:08;;;;;;;9.17;2.37;;;;;;;;;;4970414;28;59506;-69
2023/05/05 13:51:34;;;;;;;17.58;2.92;;;;;;;;;;4973627;28;59478;-70
2023/05/05 13:53:59;;;;;;;11.07;2.57;;;;;;;;;;4968550;28;59587;-67
2023/05/05 13:56:26;;;;;;;9.77;2.27;;;;;;;;;;4972756;28;59507;-70
2023/05/05 13:58:51;;;;;;;13.98;2.67;;;;;;;;;;4971262;28;59360;-72
2023/05/05 14:01:16;;;;;;;10.77;2.83;;;;;;;;;;4971877;28;59298;-70
2023/05/05 14:03:41;;;;;;;4.10;2.50;;;;;;;;;;4970207;28;59235;-69
2023/05/05 14:06:07;;;;;;;13.45;2.80;;;;;;;;;;4974409;28;59339;-70
2023/05/05 14:08:33;;;;;;;11.10;3.10;;;;;;;;;;4976549;28;59230;-72
2023/05/05 14:10:58;;;;;;;13.37;3.17;;;;;;;;;;4969154;28;60178;-70
2023/05/05 14:13:23;;;;;;;14.60;2.83;;;;;;;;;;4966594;28;59743;-71
2023/05/05 14:15:49;;;;;;;7.10;2.67;;;;;;;;;;4965841;28;60289;-71
2023/05/05 14:18:14;;;;;;;7.18;2.67;;;;;;;;;;4975638;28;60191;-71
2023/05/05 14:20:40;;;;;;;5.68;2.85;;;;;;;;;;4979133;28;58630;-72
2023/05/05 14:23:05;;;;;;;12.85;3.78;;;;;;;;;;4981698;28;59543;-71
2023/05/05 14:25:30;;;;;;;7.00;2.33;;;;;;;;;;4980965;28;59153;-71
2023/05/05 14:27:55;;;;;;;11.18;3.70;;;;;;;;;;4978636;28;59161;-71
2023/05/05 14:30:20;;;;;;;11.35;3.45;;;;;;;;;;4979919;28;59204;-70
2023/05/05 14:32:45;;;;;;;12.10;3.00;;;;;;;;;;4980635;28;59226;-71
2023/05/05 14:35:10;;;;;;;9.20;2.20;;;;;;;;;;4981078;28;59316;-71
2023/05/05 14:37:36;;;;;;;5.55;2.50;;;;;;;;;;4980002;28;59476;-71
2023/05/05 14:40:01;;;;;;;11.33;3.47;;;;;;;;;;4978560;28;59677;-71